Time;durP1;ratioP1;P1;durP2;ratioP2;P2;SDS_P1;SDS_P2;PMS_P1;PMS_P2;Temp;Humidity;BMP_temperature;BMP_pressure;BME280_temperature;BME280_humidity;BME280_pressure;Samples;Min_cycle;Max_cycle;Signal;HPM_P1;HPM_P2
2022/10/01 08:00:57;;;;;;;;;20.50;20.50;;;;;;;;5192820;27;78745;-75
2022/10/01 08:03:22;;;;;;;;;22.00;17.25;;;;;;;;5199398;27;22662;-74
2022/10/01 08:05:48;;;;;;;;;20.00;16.25;;;;;;;;5198593;27;12200;-75
2022/10/01 08:08:13;;;;;;;;;16.00;14.00;;;;;;;;5200289;27;8788;-75
2022/10/01 08:10:40;;;;;;;;;16.25;14.50;;;;;;;;5221586;22;13453;-74
2022/10/01 08:13:15;;;;;;;;;17.50;16.50;;;;;;;;5114376;27;11409;-80
2022/10/01 08:15:44;;;;;;;;;11.25;10.75;;;;;;;;5131567;27;11054;-78
2022/10/01 08:18:10;;;;;;;;;14.00;12.25;;;;;;;;5136368;27;11638;-76
2022/10/01 08:20:35;;;;;;;;;14.33;13.33;;;;;;;;5136504;27;10962;-78
2022/10/01 08:23:10;;;;;;;;;9.00;7.00;;;;;;;;5136625;27;9672;-77
2022/10/01 08:25:36;;;;;;;;;10.67;9.00;;;;;;;;5134198;27;22948;-78
2022/10/01 08:28:02;;;;;;;;;13.00;9.67;;;;;;;;5135802;27;21755;-76
2022/10/01 08:30:28;;;;;;;;;11.00;9.67;;;;;;;;5117485;27;10856;-74
2022/10/01 08:32:54;;;;;;;;;8.33;8.00;;;;;;;;5135609;27;8810;-83
2022/10/01 08:35:19;;;;;;;;;6.00;5.75;;;;;;;;5134481;27;22083;-80
2022/10/01 08:37:45;;;;;;;;;4.00;4.00;;;;;;;;5136631;27;11321;-78
2022/10/01 08:40:10;;;;;;;;;6.00;5.00;;;;;;;;5135879;27;11482;-80
2022/10/01 08:42:39;;;;;;;;;5.00;5.00;;;;;;;;5136414;27;8899;-77
2022/10/01 08:45:15;;;;;;;;;5.00;5.00;;;;;;;;5133765;27;8799;-76
2022/10/01 08:47:42;;;;;;;;;5.75;5.75;;;;;;;;5117459;27;9906;-75
2022/10/01 08:50:10;;;;;;;;;8.00;6.25;;;;;;;;5135736;27;8779;-74
2022/10/01 08:52:40;;;;;;;;;8.50;6.50;;;;;;;;5135940;27;10530;-79
2022/10/01 08:55:10;;;;;;;;;6.25;6.25;;;;;;;;5130863;27;8994;-75
2022/10/01 08:57:40;;;;;;;;;8.25;7.75;;;;;;;;5114876;28;11636;-76
2022/10/01 09:00:12;;;;;;;;;7.50;6.50;;;;;;;;5114084;28;10835;-93
2022/10/01 09:02:38;;;;;;;;;5.50;5.25;;;;;;;;5094585;28;15168;-77
2022/10/01 09:05:05;;;;;;;;;4.50;4.50;;;;;;;;5113924;28;11513;-77
2022/10/01 09:07:37;;;;;;;;;4.75;4.50;;;;;;;;5096758;28;11578;-75
2022/10/01 09:10:21;;;;;;;;;7.25;5.75;;;;;;;;5114251;28;8860;-73
2022/10/01 09:12:58;;;;;;;;;6.25;4.25;;;;;;;;5101510;28;11648;-71
2022/10/01 09:15:23;;;;;;;;;4.75;3.75;;;;;;;;5082586;28;13058;-70
2022/10/01 09:18:14;;;;;;;;;6.00;4.00;;;;;;;;5098119;28;11332;-75
2022/10/01 09:20:46;;;;;;;;;5.00;4.25;;;;;;;;5099775;28;13983;-72
2022/10/01 09:23:27;;;;;;;;;3.75;3.25;;;;;;;;5101319;28;11863;-73
2022/10/01 09:25:53;;;;;;;;;6.00;5.00;;;;;;;;5101332;28;11817;-74
2022/10/01 09:28:23;;;;;;;;;3.00;3.00;;;;;;;;5116444;28;11313;-75
2022/10/01 09:30:55;;;;;;;;;4.50;4.50;;;;;;;;5111721;28;8910;-79
2022/10/01 09:33:21;;;;;;;;;4.00;4.00;;;;;;;;5109589;28;11395;-74
2022/10/01 09:36:00;;;;;;;;;4.00;4.00;;;;;;;;5111261;28;8831;-79
2022/10/01 09:38:28;;;;;;;;;3.00;2.00;;;;;;;;5108850;28;11595;-76
2022/10/01 09:40:57;;;;;;;;;3.50;2.50;;;;;;;;5110973;28;9946;-76
2022/10/01 09:43:25;;;;;;;;;4.80;2.00;;;;;;;;5100374;28;8872;-73
2022/10/01 09:45:51;;;;;;;;;3.40;3.40;;;;;;;;5109404;28;12043;-71
2022/10/01 09:48:37;;;;;;;;;3.00;3.00;;;;;;;;5107292;28;11830;-74
2022/10/01 09:51:14;;;;;;;;;5.20;3.80;;;;;;;;5117127;28;9149;-71
2022/10/01 09:53:46;;;;;;;;;2.00;2.00;;;;;;;;5118408;28;11482;-73
2022/10/01 09:56:22;;;;;;;;;3.00;3.00;;;;;;;;5118618;28;12033;-72
2022/10/01 09:58:51;;;;;;;;;2.00;2.00;;;;;;;;5118956;28;8857;-73
2022/10/01 10:01:23;;;;;;;;;4.80;4.80;;;;;;;;5100426;28;11537;-73
2022/10/01 10:03:52;;;;;;;;;4.00;4.00;;;;;;;;5118745;28;11398;-73
2022/10/01 10:06:20;;;;;;;;;1.80;1.80;;;;;;;;5119551;28;8771;-73
2022/10/01 10:08:45;;;;;;;;;3.00;2.60;;;;;;;;5120998;28;11699;-73
2022/10/01 10:11:19;;;;;;;;;3.00;2.50;;;;;;;;5121435;28;11500;-73
2022/10/01 10:13:50;;;;;;;;;3.40;2.80;;;;;;;;5102303;28;8801;-72
2022/10/01 10:16:25;;;;;;;;;4.20;3.00;;;;;;;;5102272;28;10722;-73
2022/10/01 10:18:52;;;;;;;;;1.80;1.00;;;;;;;;5120734;28;11578;-73
2022/10/01 10:21:20;;;;;;;;;1.80;1.80;;;;;;;;5120866;28;10610;-73
2022/10/01 10:23:49;;;;;;;;;3.80;3.80;;;;;;;;5119775;28;8781;-73
2022/10/01 10:26:19;;;;;;;;;1.60;1.00;;;;;;;;5120605;28;8884;-73
2022/10/01 10:28:45;;;;;;;;;0.00;0.00;;;;;;;;5120702;28;12016;-73
2022/10/01 10:31:20;;;;;;;;;0.00;0.00;;;;;;;;5120738;28;10785;-73
2022/10/01 10:33:49;;;;;;;;;0.00;0.00;;;;;;;;5120870;28;8750;-72
2022/10/01 10:36:15;;;;;;;;;1.40;1.40;;;;;;;;5121038;28;8868;-72
2022/10/01 10:38:45;;;;;;;;;0.25;0.25;;;;;;;;5120725;28;12258;-72
2022/10/01 10:41:20;;;;;;;;;3.00;3.00;;;;;;;;5120148;28;11692;-72
2022/10/01 10:43:47;;;;;;;;;3.50;1.50;;;;;;;;5120659;28;11904;-73
2022/10/01 10:46:21;;;;;;;;;2.50;1.25;;;;;;;;5120401;28;11035;-72
2022/10/01 10:48:52;;;;;;;;;2.50;1.00;;;;;;;;5120260;28;12456;-73
2022/10/01 10:51:17;;;;;;;;;0.00;0.00;;;;;;;;5101793;28;8798;-72
2022/10/01 10:53:44;;;;;;;;;0.33;0.33;;;;;;;;5120501;28;10255;-72
2022/10/01 10:56:16;;;;;;;;;0.00;0.00;;;;;;;;5120079;28;8789;-73
2022/10/01 10:58:49;;;;;;;;;2.00;2.00;;;;;;;;5120393;28;9555;-72
2022/10/01 11:01:18;;;;;;;;;1.00;1.00;;;;;;;;5120103;28;9010;-72
2022/10/01 11:03:46;;;;;;;;;0.00;0.00;;;;;;;;5119984;28;8792;-72
2022/10/01 11:06:13;;;;;;;;;1.50;1.00;;;;;;;;5119807;28;8886;-72
2022/10/01 11:08:39;;;;;;;;;1.50;1.50;;;;;;;;5119932;28;10338;-72
2022/10/01 11:11:15;;;;;;;;;1.00;1.00;;;;;;;;5120465;28;8820;-71
2022/10/01 11:13:41;;;;;;;;;1.50;1.50;;;;;;;;5120356;28;8762;-72
2022/10/01 11:16:09;;;;;;;;;0.00;0.00;;;;;;;;5120132;28;8891;-72
2022/10/01 11:18:40;;;;;;;;;2.00;2.00;;;;;;;;5119759;28;12850;-72
2022/10/01 11:21:21;;;;;;;;;2.00;2.00;;;;;;;;5120204;28;9956;-72
2022/10/01 11:23:52;;;;;;;;;1.25;1.00;;;;;;;;5120229;28;8947;-72
2022/10/01 11:26:18;;;;;;;;;1.75;1.00;;;;;;;;5120074;28;10592;-73
2022/10/01 11:28:50;;;;;;;;;2.00;1.00;;;;;;;;5119762;28;9296;-72
2022/10/01 11:31:30;;;;;;;;;1.75;1.75;;;;;;;;5119831;28;9999;-72
2022/10/01 11:34:10;;;;;;;;;1.25;1.25;;;;;;;;5119470;28;11357;-72
2022/10/01 11:36:35;;;;;;;;;1.50;0.00;;;;;;;;5119754;28;8882;-72
2022/10/01 11:39:02;;;;;;;;;1.00;1.00;;;;;;;;5119480;28;10555;-72
2022/10/01 11:41:30;;;;;;;;;4.00;1.00;;;;;;;;5119451;28;9518;-72
2022/10/01 11:43:58;;;;;;;;;1.50;1.00;;;;;;;;5119740;28;9689;-72
2022/10/01 11:46:34;;;;;;;;;1.25;1.25;;;;;;;;5119392;28;9094;-72
2022/10/01 11:49:25;;;;;;;;;2.00;2.00;;;;;;;;5119057;28;10259;-71
2022/10/01 11:52:11;;;;;;;;;1.25;1.25;;;;;;;;5087092;28;11453;-71
2022/10/01 11:54:40;;;;;;;;;1.00;1.00;;;;;;;;5118540;28;11386;-72
2022/10/01 12:00:05;;;;;;;;;2.25;2.25;;;;;;;;5119661;28;8758;-72
2022/10/01 12:02:46;;;;;;;;;1.00;1.00;;;;;;;;5119255;28;10638;-72
2022/10/01 12:05:30;;;;;;;;;1.00;1.00;;;;;;;;5119248;28;11548;-73
2022/10/01 12:08:01;;;;;;;;;0.00;0.00;;;;;;;;5119860;28;8759;-72
2022/10/01 12:10:45;;;;;;;;;2.00;1.00;;;;;;;;5119834;28;9567;-74
2022/10/01 12:13:22;;;;;;;;;2.00;1.00;;;;;;;;5119026;28;8952;-73
2022/10/01 12:15:48;;;;;;;;;2.00;1.00;;;;;;;;5119133;28;8924;-73
2022/10/01 12:18:27;;;;;;;;;0.00;0.00;;;;;;;;5119125;28;8917;-73
2022/10/01 12:20:54;;;;;;;;;3.00;3.00;;;;;;;;5115157;28;8880;-76
2022/10/01 12:23:31;;;;;;;;;2.00;2.00;;;;;;;;5118769;28;8824;-73
2022/10/01 12:26:22;;;;;;;;;2.25;1.75;;;;;;;;5118679;28;8911;-72
2022/10/01 12:28:47;;;;;;;;;1.00;1.00;;;;;;;;5100624;28;10603;-72
2022/10/01 12:31:27;;;;;;;;;1.00;1.00;;;;;;;;5118896;28;11568;-74
2022/10/01 12:33:52;;;;;;;;;2.00;2.00;;;;;;;;5118813;28;8915;-72
2022/10/01 12:36:17;;;;;;;;;2.00;2.00;;;;;;;;5118486;28;9233;-72
2022/10/01 12:38:45;;;;;;;;;4.67;2.00;;;;;;;;5119200;28;9471;-76
2022/10/01 12:41:26;;;;;;;;;1.67;1.67;;;;;;;;5117615;28;10370;-76
2022/10/01 12:44:06;;;;;;;;;1.67;1.67;;;;;;;;5098091;28;12021;-74
2022/10/01 12:46:38;;;;;;;;;2.00;2.00;;;;;;;;5120293;27;9056;-73
2022/10/01 12:49:33;;;;;;;;;5.67;2.67;;;;;;;;5121705;28;12057;-79
2022/10/01 12:52:32;;;;;;;;;3.00;1.33;;;;;;;;5099115;28;12542;-79
2022/10/01 12:54:57;;;;;;;;;3.33;2.00;;;;;;;;5054971;28;13581;-75
2022/10/01 12:57:27;;;;;;;;;2.00;2.00;;;;;;;;5100677;28;10920;-75
2022/10/01 12:59:53;;;;;;;;;3.33;3.00;;;;;;;;5118694;28;8788;-76
2022/10/01 13:02:30;;;;;;;;;4.00;4.00;;;;;;;;5119334;28;10509;-76
2022/10/01 13:05:14;;;;;;;;;2.00;1.00;;;;;;;;5119362;28;11510;-80
2022/10/01 13:07:47;;;;;;;;;7.00;3.00;;;;;;;;5119690;28;10057;-75
2022/10/01 13:10:20;;;;;;;;;2.00;2.00;;;;;;;;5113805;28;9033;-77
2022/10/01 13:13:06;;;;;;;;;1.67;1.33;;;;;;;;5101275;28;10863;-80
2022/10/01 13:15:35;;;;;;;;;1.00;1.00;;;;;;;;5103461;28;11926;-79
2022/10/01 13:18:00;;;;;;;;;1.00;1.00;;;;;;;;5119181;28;9318;-75
2022/10/01 13:20:32;;;;;;;;;2.67;2.00;;;;;;;;5100079;28;9064;-76
2022/10/01 13:23:07;;;;;;;;;4.00;2.00;;;;;;;;5120083;28;10892;-80
2022/10/01 13:25:36;;;;;;;;;2.00;2.00;;;;;;;;5118115;28;9292;-78
2022/10/01 13:28:01;;;;;;;;;2.00;2.00;;;;;;;;5119923;28;9087;-79
2022/10/01 13:30:32;;;;;;;;;0.67;0.33;;;;;;;;5099603;28;8935;-78
2022/10/01 13:33:02;;;;;;;;;3.00;1.00;;;;;;;;5119910;28;11547;-76
2022/10/01 13:35:33;;;;;;;;;1.00;1.00;;;;;;;;5117194;28;11749;-74
2022/10/01 13:37:58;;;;;;;;;2.00;2.00;;;;;;;;5119448;28;8967;-75
2022/10/01 13:40:28;;;;;;;;;1.00;1.00;;;;;;;;5118074;28;9081;-77
2022/10/01 13:42:55;;;;;;;;;1.33;1.33;;;;;;;;5120267;28;9065;-77
2022/10/01 13:45:26;;;;;;;;;0.25;0.25;;;;;;;;5120862;28;9030;-78
2022/10/01 13:48:02;;;;;;;;;2.00;1.00;;;;;;;;5121318;28;8893;-69
2022/10/01 13:50:28;;;;;;;;;0.00;0.00;;;;;;;;5121436;28;12096;-76
2022/10/01 13:53:04;;;;;;;;;1.67;1.00;;;;;;;;5121390;28;8877;-81
2022/10/01 13:55:30;;;;;;;;;1.00;1.00;;;;;;;;5102447;28;11237;-85
2022/10/01 13:58:06;;;;;;;;;0.33;0.00;;;;;;;;5121439;27;8997;-76
2022/10/01 14:00:32;;;;;;;;;2.00;2.00;;;;;;;;5120849;28;10851;-76
2022/10/01 14:02:59;;;;;;;;;3.00;1.00;;;;;;;;5121184;28;10275;-76
2022/10/01 14:05:30;;;;;;;;;1.00;1.00;;;;;;;;5101517;28;10621;-78
2022/10/01 14:08:06;;;;;;;;;3.00;2.00;;;;;;;;5111648;28;8966;-78
2022/10/01 14:15:57;;;;;;;;;1.00;1.00;;;;;;;;5117249;28;9114;-78
2022/10/01 14:16:06;;;;;;;;;1.00;1.00;;;;;;;;5119462;28;11347;-78
2022/10/01 14:18:35;;;;;;;;;0.33;0.33;;;;;;;;5100572;28;11653;-78
2022/10/01 14:21:03;;;;;;;;;2.00;1.00;;;;;;;;5120025;28;11543;-76
2022/10/01 14:23:33;;;;;;;;;0.00;0.00;;;;;;;;5119730;28;11601;-76
2022/10/01 14:26:09;;;;;;;;;1.00;1.00;;;;;;;;5117564;28;8932;-78
2022/10/01 14:28:34;;;;;;;;;1.33;1.00;;;;;;;;5120159;27;8897;-78
2022/10/01 14:31:06;;;;;;;;;1.33;0.67;;;;;;;;5119832;28;8940;-77
2022/10/01 14:33:40;;;;;;;;;0.00;0.00;;;;;;;;5119922;28;8910;-78
2022/10/01 14:36:17;;;;;;;;;1.00;0.00;;;;;;;;5120372;28;11482;-76
2022/10/01 14:38:42;;;;;;;;;0.33;0.00;;;;;;;;5108026;28;9115;-78
2022/10/01 14:41:18;;;;;;;;;0.00;0.00;;;;;;;;5119663;27;9151;-77
2022/10/01 14:43:44;;;;;;;;;0.00;0.00;;;;;;;;5118607;28;8780;-79
2022/10/01 14:46:12;;;;;;;;;0.00;0.00;;;;;;;;5120214;27;8942;-79
2022/10/01 14:48:39;;;;;;;;;1.00;0.00;;;;;;;;5110090;28;8799;-78
2022/10/01 14:51:05;;;;;;;;;0.33;0.00;;;;;;;;5119953;28;9112;-79
2022/10/01 14:53:32;;;;;;;;;0.00;0.00;;;;;;;;5119839;27;9115;-78
